createdAt,value
2019-04-22T00:00:40.766Z,13.09
2019-04-22T00:01:38.618Z,13.12
2019-04-22T00:02:44.778Z,13.07
2019-04-22T00:03:49.722Z,12.98
2019-04-22T00:04:52.599Z,12.92
2019-04-22T00:06:01.178Z,12.99
2019-04-22T00:07:03.272Z,12.99
2019-04-22T00:08:08.597Z,12.87
2019-04-22T00:08:57.669Z,12.89
2019-04-22T00:10:04.864Z,13.09
2019-04-22T00:11:14.629Z,13.17
2019-04-22T00:12:11.272Z,13.28
2019-04-22T00:13:11.287Z,13.13
2019-04-22T00:14:00.762Z,13.12
2019-04-22T00:15:05.405Z,13.24
2019-04-22T00:15:59.202Z,13.12
2019-04-22T00:17:16.330Z,13.21
2019-04-22T00:18:13.262Z,13.28
2019-04-22T00:19:15.115Z,13.41
2019-04-22T00:20:11.524Z,13.35
2019-04-22T00:21:04.789Z,13.43
2019-04-22T00:22:07.734Z,13.39
2019-04-22T00:23:05.943Z,13.29
2019-04-22T00:25:14.350Z,13.22
2019-04-22T00:26:09.325Z,13.24
2019-04-22T00:27:14.429Z,13.21
2019-04-22T00:28:08.186Z,13.12
2019-04-22T00:29:26.932Z,13.13
2019-04-22T00:30:23.922Z,12.77
2019-04-22T00:31:09.956Z,12.55
2019-04-22T00:32:05.064Z,12.44
2019-04-22T00:33:07.795Z,12.36
2019-04-22T00:34:05.149Z,12.07
2019-04-22T00:35:06.043Z,11.88
2019-04-22T00:36:08.691Z,11.67
2019-04-22T00:37:07.948Z,11.67
2019-04-22T00:38:11.269Z,11.64
2019-04-22T00:39:18.346Z,11.48
2019-04-22T00:40:15.967Z,11.24
2019-04-22T00:41:13.230Z,11.33
2019-04-22T00:42:08.101Z,11.94
2019-04-22T00:43:13.600Z,12.21
2019-04-22T00:44:12.285Z,12.48
2019-04-22T00:45:13.846Z,12.56
2019-04-22T00:46:11.365Z,12.56
2019-04-22T00:47:17.981Z,12.69
2019-04-22T00:48:16.393Z,12.69
2019-04-22T00:49:59.936Z,12.87
2019-04-22T00:51:26.686Z,12.81
2019-04-22T00:53:20.188Z,12.79
2019-04-22T00:54:17.418Z,12.63
2019-04-22T00:55:23.110Z,12.37
2019-04-22T00:57:15.688Z,12.23
2019-04-22T00:58:22.503Z,12.30
2019-04-22T00:59:14.410Z,12.34
2019-04-22T01:00:14.132Z,12.29
2019-04-22T01:01:20.463Z,12.15
2019-04-22T01:02:18.513Z,12.03
2019-04-22T01:03:19.769Z,11.84
2019-04-22T01:04:25.616Z,11.64
2019-04-22T01:05:15.129Z,11.46
2019-04-22T01:06:16.156Z,11.24
2019-04-22T01:07:18.769Z,11.01
2019-04-22T01:08:25.414Z,10.94
2019-04-22T01:09:19.090Z,10.83
2019-04-22T01:10:18.796Z,10.75
2019-04-22T01:11:23.097Z,10.95
2019-04-22T01:12:20.727Z,11.26
2019-04-22T01:13:22.852Z,10.98
2019-04-22T01:14:12.537Z,10.63
2019-04-22T01:15:23.298Z,10.60
2019-04-22T01:17:19.019Z,10.46
2019-04-22T01:18:15.804Z,10.25
2019-04-22T01:19:27.717Z,10.35
2019-04-22T01:20:29.448Z,10.54
2019-04-22T01:21:24.356Z,10.57
2019-04-22T01:22:18.567Z,10.78
2019-04-22T01:23:19.763Z,11.05
2019-04-22T01:24:15.717Z,11.28
2019-04-22T01:25:14.692Z,11.38
2019-04-22T01:26:09.849Z,11.42
2019-04-22T01:27:11.541Z,11.48
2019-04-22T01:28:10.877Z,11.36
2019-04-22T01:29:09.441Z,11.27
2019-04-22T01:30:07.333Z,11.24
2019-04-22T01:31:02.617Z,11.35
2019-04-22T01:31:58.074Z,11.33
2019-04-22T01:33:07.657Z,11.08
2019-04-22T01:34:10.086Z,10.93
2019-04-22T01:35:14.304Z,10.90
2019-04-22T01:36:13.882Z,10.72
2019-04-22T01:37:14.134Z,10.58
2019-04-22T01:38:13.395Z,10.49
2019-04-22T01:39:25.848Z,10.65
2019-04-22T01:40:24.214Z,10.80
2019-04-22T01:41:23.416Z,10.84
2019-04-22T01:42:16.896Z,10.94
2019-04-22T01:43:24.601Z,10.99
2019-04-22T01:44:31.397Z,11.01
2019-04-22T01:45:25.730Z,10.78
2019-04-22T01:46:25.477Z,10.63
2019-04-22T01:47:24.843Z,10.57
2019-04-22T01:48:26.971Z,10.42
2019-04-22T01:50:21.390Z,10.13
2019-04-22T01:51:22.650Z,10.46
2019-04-22T01:52:20.449Z,10.54
2019-04-22T01:53:19.637Z,10.32
2019-04-22T01:55:29.525Z,10.18
2019-04-22T01:56:24.231Z,9.93
2019-04-22T01:57:19.083Z,9.98
2019-04-22T01:58:17.125Z,9.92
2019-04-22T01:59:15.802Z,9.83
2019-04-22T02:00:18.922Z,9.74
2019-04-22T02:01:27.518Z,9.60
2019-04-22T02:02:24.598Z,9.67
2019-04-22T02:03:25.737Z,9.70
2019-04-22T02:04:30.308Z,9.56
2019-04-22T02:05:26.787Z,9.27
2019-04-22T02:06:30.683Z,9.31
2019-04-22T02:07:23.462Z,9.20
2019-04-22T02:08:31.302Z,9.31
2019-04-22T02:09:31.605Z,9.30
2019-04-22T02:10:32.260Z,9.19
2019-04-22T02:11:37.302Z,9.20
2019-04-22T02:12:30.820Z,9.20
2019-04-22T02:13:32.130Z,9.12
2019-04-22T02:14:27.382Z,9.17
2019-04-22T02:15:23.354Z,9.19
2019-04-22T02:16:28.975Z,9.19
2019-04-22T02:17:32.736Z,9.16
2019-04-22T02:18:31.576Z,8.96
2019-04-22T02:19:30.717Z,8.96
2019-04-22T02:20:25.355Z,9.42
2019-04-22T02:21:20.157Z,9.73
2019-04-22T02:22:42.955Z,10.04
2019-04-22T02:24:35.301Z,10.24
2019-04-22T02:25:34.511Z,10.52
2019-04-22T02:26:31.549Z,10.26
2019-04-22T02:27:32.802Z,10.28
2019-04-22T02:28:38.321Z,10.26
2019-04-22T02:29:31.084Z,9.96
2019-04-22T02:30:46.927Z,9.74
2019-04-22T02:31:35.896Z,9.63
2019-04-22T02:32:54.949Z,9.50
2019-04-22T02:35:52.130Z,9.20
2019-04-22T02:37:30.097Z,9.16
2019-04-22T02:38:59.766Z,9.03
2019-04-22T02:39:36.113Z,8.98
2019-04-22T02:40:44.478Z,8.91
2019-04-22T02:41:30.883Z,8.82
2019-04-22T02:42:34.876Z,8.79
2019-04-22T02:43:51.928Z,8.76
2019-04-22T02:44:35.589Z,8.61
2019-04-22T02:45:50.703Z,8.52
2019-04-22T02:47:54.492Z,8.57
2019-04-22T02:50:38.502Z,8.79
2019-04-22T02:51:32.897Z,9.42
2019-04-22T02:52:39.447Z,9.71
2019-04-22T02:54:17.272Z,9.91
2019-04-22T02:54:54.589Z,9.93
2019-04-22T02:55:46.338Z,9.95
2019-04-22T02:57:50.605Z,9.73
2019-04-22T02:59:39.854Z,9.58
2019-04-22T03:00:58.414Z,9.73
2019-04-22T03:01:47.069Z,9.91
2019-04-22T03:03:56.564Z,10.62
2019-04-22T03:04:38.835Z,10.47
2019-04-22T03:05:45.527Z,10.49
2019-04-22T03:06:42.944Z,10.36
2019-04-22T03:07:41.033Z,10.24
2019-04-22T03:09:52.614Z,10.09
2019-04-22T03:10:47.312Z,10.17
2019-04-22T03:12:33.449Z,10.36
2019-04-22T03:14:40.422Z,10.72
2019-04-22T03:15:52.518Z,10.84
2019-04-22T03:17:06.134Z,10.84
2019-04-22T03:18:57.227Z,10.55
2019-04-22T03:20:51.863Z,10.16
2019-04-22T03:23:05.832Z,10.44
2019-04-22T03:23:55.875Z,10.31
2019-04-22T03:25:05.499Z,10.06
2019-04-22T03:26:02.120Z,9.89
2019-04-22T03:27:38.792Z,9.81
2019-04-22T03:28:54.829Z,9.71
2019-04-22T03:29:58.333Z,9.53
2019-04-22T03:30:56.109Z,9.45
2019-04-22T03:34:15.521Z,10.07
2019-04-22T03:35:20.231Z,10.36
2019-04-22T03:39:12.264Z,10.58
2019-04-22T03:39:55.696Z,10.65
2019-04-22T03:41:13.457Z,10.62
2019-04-22T03:43:54.269Z,10.58
2019-04-22T03:45:06.254Z,10.57
2019-04-22T03:45:42.589Z,10.60
2019-04-22T03:47:02.383Z,10.57
2019-04-22T03:48:58.566Z,10.42
2019-04-22T03:49:58.562Z,10.26
2019-04-22T03:50:52.448Z,9.98
2019-04-22T03:52:05.365Z,9.83
2019-04-22T03:54:02.931Z,9.70
2019-04-22T03:55:00.783Z,10.13
2019-04-22T03:55:59.676Z,10.25
2019-04-22T03:57:22.002Z,10.38
2019-04-22T03:58:01.225Z,10.39
2019-04-22T03:58:58.601Z,10.32
2019-04-22T04:00:03.876Z,10.44
2019-04-22T04:01:18.349Z,10.31
2019-04-22T04:02:55.956Z,9.88
2019-04-22T04:04:07.129Z,9.95
2019-04-22T04:05:57.760Z,9.95
2019-04-22T04:07:11.181Z,9.96
2019-04-22T04:08:51.604Z,10.14
2019-04-22T04:10:08.067Z,10.14
2019-04-22T04:10:53.368Z,10.09
2019-04-22T04:12:01.898Z,10.09
2019-04-22T04:12:58.156Z,10.14
2019-04-22T04:14:05.301Z,10.18
2019-04-22T04:15:46.618Z,10.14
2019-04-22T04:17:06.343Z,10.02
2019-04-22T04:19:07.108Z,10.07
2019-04-22T04:20:05.936Z,10.01
2019-04-22T04:21:58.679Z,9.99
2019-04-22T04:25:24.750Z,9.99
2019-04-22T04:26:00.965Z,10.07
2019-04-22T04:27:07.644Z,10.06
2019-04-22T04:29:02.808Z,10.16
2019-04-22T04:30:05.518Z,10.06
2019-04-22T04:31:09.198Z,10.10
2019-04-22T04:32:09.368Z,10.13
2019-04-22T04:32:56.710Z,10.13
2019-04-22T04:34:06.409Z,10.14
2019-04-22T04:37:25.326Z,10.04
2019-04-22T04:37:54.865Z,10.04
2019-04-22T04:40:18.845Z,10.17
2019-04-22T04:40:57.994Z,10.16
2019-04-22T04:42:25.417Z,10.04
2019-04-22T04:44:14.610Z,10.01
2019-04-22T04:46:07.241Z,10.01
2019-04-22T04:47:18.279Z,9.98
2019-04-22T04:48:00.890Z,10.13
2019-04-22T04:49:09.375Z,10.16
2019-04-22T04:52:10.448Z,10.38
2019-04-22T04:55:10.066Z,10.47
2019-04-22T04:56:10.821Z,10.54
2019-04-22T04:57:28.357Z,10.75
2019-04-22T04:58:13.862Z,10.90
2019-04-22T04:59:17.027Z,10.94
2019-04-22T05:01:07.527Z,11.13
2019-04-22T05:02:10.062Z,11.26
2019-04-22T05:04:13.705Z,11.31
2019-04-22T05:06:09.238Z,11.36
2019-04-22T05:07:08.707Z,11.46
2019-04-22T05:08:01.035Z,11.54
2019-04-22T05:10:23.867Z,11.46
2019-04-22T05:11:11.409Z,11.35
2019-04-22T05:12:22.482Z,11.36
2019-04-22T05:13:01.683Z,11.30
2019-04-22T05:14:17.714Z,11.33
2019-04-22T05:15:15.338Z,11.48
2019-04-22T05:17:12.886Z,11.42
2019-04-22T05:18:06.057Z,11.41
2019-04-22T05:19:09.679Z,11.36
2019-04-22T05:20:12.841Z,11.20
2019-04-22T05:21:12.322Z,11.19
2019-04-22T05:22:07.621Z,11.17
2019-04-22T05:22:59.479Z,11.28
2019-04-22T05:24:09.597Z,11.31
2019-04-22T05:25:04.513Z,11.31
2019-04-22T05:26:04.192Z,11.46
2019-04-22T05:27:17.722Z,11.72
2019-04-22T05:28:02.502Z,11.97
2019-04-22T05:29:05.558Z,12.30
2019-04-22T05:31:08.614Z,12.76
2019-04-22T05:32:01.458Z,12.87
2019-04-22T05:33:02.978Z,13.13
2019-04-22T05:34:08.127Z,13.13
2019-04-22T05:35:06.802Z,13.17
2019-04-22T05:36:07.510Z,13.44
2019-04-22T05:37:13.129Z,13.22
2019-04-22T05:38:11.799Z,13.29
2019-04-22T05:39:06.080Z,13.44
2019-04-22T05:40:14.959Z,13.22
2019-04-22T05:41:03.146Z,13.41
2019-04-22T05:42:08.437Z,13.69
2019-04-22T05:43:00.153Z,13.72
2019-04-22T05:44:12.482Z,13.75
2019-04-22T05:45:13.279Z,13.83
2019-04-22T05:46:02.698Z,13.80
2019-04-22T05:47:08.041Z,13.88
2019-04-22T05:48:02.840Z,14.06
2019-04-22T05:49:14.883Z,13.99
2019-04-22T05:50:10.973Z,14.06
2019-04-22T05:51:25.925Z,14.17
2019-04-22T05:52:12.221Z,14.35
2019-04-22T05:53:03.399Z,14.61
2019-04-22T05:54:09.064Z,14.53
2019-04-22T05:55:09.682Z,14.63
2019-04-22T05:56:16.787Z,14.66
2019-04-22T05:57:09.432Z,14.52
2019-04-22T05:58:12.339Z,14.69
2019-04-22T05:59:12.411Z,14.71
2019-04-22T06:00:14.622Z,14.94
2019-04-22T06:02:21.143Z,15.16
2019-04-22T06:03:26.389Z,15.20
2019-04-22T06:04:11.309Z,15.18
2019-04-22T06:05:13.254Z,15.30
2019-04-22T06:06:09.359Z,15.49
2019-04-22T06:07:06.626Z,15.53
2019-04-22T06:08:11.889Z,15.84
2019-04-22T06:09:10.619Z,15.95
2019-04-22T06:10:26.075Z,16.01
2019-04-22T06:11:16.806Z,16.03
2019-04-22T06:12:10.709Z,16.32
2019-04-22T06:13:04.375Z,16.44
2019-04-22T06:14:07.753Z,16.14
2019-04-22T06:15:16.338Z,16.22
2019-04-22T06:16:16.082Z,16.14
2019-04-22T06:17:10.764Z,16.17
2019-04-22T06:18:16.111Z,16.14
2019-04-22T06:19:13.755Z,16.50
2019-04-22T06:20:09.196Z,16.48
2019-04-22T06:21:11.249Z,16.51
2019-04-22T06:22:25.451Z,16.75
2019-04-22T06:24:17.576Z,16.90
2019-04-22T06:25:20.393Z,17.22
2019-04-22T06:28:23.553Z,17.42
2019-04-22T06:29:16.600Z,17.40
2019-04-22T06:30:16.868Z,17.17
2019-04-22T06:31:23.068Z,17.45
2019-04-22T06:33:15.325Z,17.66
2019-04-22T06:34:17.895Z,17.94
2019-04-22T06:35:23.587Z,18.28
2019-04-22T06:36:20.610Z,17.92
2019-04-22T06:37:17.435Z,18.25
2019-04-22T06:39:26.534Z,18.64
2019-04-22T06:40:23.027Z,18.31
2019-04-22T06:42:21.909Z,18.47
2019-04-22T06:43:16.115Z,18.26
2019-04-22T06:44:18.012Z,17.77
2019-04-22T06:45:18.921Z,17.99
2019-04-22T06:46:20.247Z,18.38
2019-04-22T06:47:37.510Z,18.14
2019-04-22T06:48:18.921Z,18.44
2019-04-22T06:49:26.822Z,18.66
2019-04-22T06:50:24.209Z,18.94
2019-04-22T06:51:21.309Z,18.65
2019-04-22T06:52:18.337Z,18.35
2019-04-22T06:53:17.431Z,18.51
2019-04-22T06:54:22.070Z,18.71
2019-04-22T06:55:22.921Z,18.65
2019-04-22T06:56:16.161Z,18.69
2019-04-22T06:57:23.932Z,18.87
2019-04-22T06:58:36.640Z,19.02
2019-04-22T06:59:18.394Z,19.43
2019-04-22T07:00:24.758Z,19.40
2019-04-22T07:01:40.475Z,19.40
2019-04-22T07:02:23.882Z,19.06
2019-04-22T07:03:34.721Z,19.05
2019-04-22T07:04:23.158Z,19.25
2019-04-22T07:05:21.766Z,19.16
2019-04-22T07:06:31.695Z,19.31
2019-04-22T07:07:20.123Z,19.42
2019-04-22T07:09:33.535Z,19.38
2019-04-22T07:11:18.978Z,19.64
2019-04-22T07:12:24.811Z,19.80
2019-04-22T07:13:23.433Z,19.76
2019-04-22T07:14:19.107Z,19.82
2019-04-22T07:15:36.977Z,19.80
2019-04-22T07:16:25.106Z,19.75
2019-04-22T07:17:31.073Z,20.38
2019-04-22T07:19:37.150Z,20.68
2019-04-22T07:20:23.967Z,20.85
2019-04-22T07:21:26.132Z,20.51
2019-04-22T07:23:27.079Z,20.69
2019-04-22T07:25:23.856Z,21.16
2019-04-22T07:26:20.444Z,21.46
2019-04-22T07:27:40.422Z,21.55
2019-04-22T07:28:20.474Z,21.48
2019-04-22T07:29:25.062Z,21.42
2019-04-22T07:30:26.949Z,21.51
2019-04-22T07:31:28.558Z,21.21
2019-04-22T07:32:40.026Z,21.06
2019-04-22T07:34:33.174Z,21.16
2019-04-22T07:35:33.627Z,21.52
2019-04-22T07:37:38.864Z,21.11
2019-04-22T07:38:26.775Z,21.16
2019-04-22T07:39:30.868Z,21.55
2019-04-22T07:40:34.375Z,21.68
2019-04-22T07:41:30.117Z,21.91
2019-04-22T07:42:34.347Z,22.01
2019-04-22T07:43:40.835Z,22.12
2019-04-22T07:44:30.895Z,22.04
2019-04-22T07:45:29.864Z,22.42
2019-04-22T07:46:39.036Z,22.70
2019-04-22T07:47:46.659Z,22.54
2019-04-22T07:48:39.383Z,21.98
2019-04-22T07:49:33.833Z,21.96
2019-04-22T07:50:37.142Z,21.28
2019-04-22T07:51:32.608Z,21.28
2019-04-22T07:52:31.989Z,21.67
2019-04-22T07:53:28.991Z,21.85
2019-04-22T07:54:34.665Z,21.68
2019-04-22T07:55:32.538Z,21.21
2019-04-22T07:56:33.188Z,21.15
2019-04-22T07:57:50.672Z,21.11
2019-04-22T07:58:29.311Z,21.43
2019-04-22T07:59:32.186Z,21.51
2019-04-22T08:00:34.311Z,21.00
2019-04-22T08:01:30.580Z,20.91
2019-04-22T08:02:37.684Z,21.03
2019-04-22T08:03:38.095Z,20.96
2019-04-22T08:04:49.970Z,21.55
2019-04-22T08:06:51.589Z,21.63
2019-04-22T08:08:34.022Z,21.85
2019-04-22T08:09:37.305Z,22.30
2019-04-22T08:10:39.044Z,22.56
2019-04-22T08:11:46.282Z,22.63
2019-04-22T08:12:39.083Z,23.09
2019-04-22T08:13:34.339Z,23.26
2019-04-22T08:14:36.246Z,23.32
2019-04-22T08:15:32.965Z,23.52
2019-04-22T08:16:40.341Z,23.59
2019-04-22T08:18:37.109Z,23.54
2019-04-22T08:19:40.092Z,23.41
2019-04-22T08:20:33.652Z,23.07
2019-04-22T08:21:38.249Z,23.00
2019-04-22T08:22:35.882Z,23.21
2019-04-22T08:23:39.436Z,23.62
2019-04-22T08:25:39.521Z,23.87
2019-04-22T08:26:41.758Z,23.94
2019-04-22T08:27:39.625Z,23.99
2019-04-22T08:28:42.777Z,23.72
2019-04-22T08:29:46.017Z,22.54
2019-04-22T08:30:41.462Z,22.38
2019-04-22T08:31:40.381Z,22.81
2019-04-22T08:32:42.863Z,23.32
2019-04-22T08:33:39.744Z,23.56
2019-04-22T08:34:38.979Z,23.31
2019-04-22T08:35:52.526Z,23.56
2019-04-22T08:37:13.755Z,23.78
2019-04-22T08:38:40.437Z,23.53
2019-04-22T08:39:32.581Z,24.04
2019-04-22T08:40:45.467Z,24.37
2019-04-22T08:41:37.462Z,24.02
2019-04-22T08:43:48.242Z,24.45
2019-04-22T08:45:04.839Z,24.55
2019-04-22T08:45:47.514Z,24.15
2019-04-22T08:48:48.145Z,24.36
2019-04-22T08:49:50.766Z,24.52
2019-04-22T08:51:58.455Z,24.46
2019-04-22T08:52:45.699Z,23.87
2019-04-22T08:53:51.932Z,23.38
2019-04-22T08:54:44.218Z,23.74
2019-04-22T08:55:49.230Z,23.35
2019-04-22T08:56:56.880Z,23.41
2019-04-22T08:58:07.289Z,23.89
2019-04-22T08:58:39.764Z,23.87
2019-04-22T08:59:43.196Z,23.89
2019-04-22T09:00:52.845Z,24.11
2019-04-22T09:01:38.110Z,24.08
2019-04-22T09:02:46.792Z,23.87
2019-04-22T09:03:45.534Z,23.25
2019-04-22T09:04:42.098Z,22.86
2019-04-22T09:07:01.358Z,23.06
2019-04-22T09:07:48.922Z,23.04
2019-04-22T09:08:48.742Z,22.96
2019-04-22T09:09:44.748Z,22.89
2019-04-22T09:10:44.919Z,22.91
2019-04-22T09:11:51.703Z,23.32
2019-04-22T09:13:02.462Z,23.37
2019-04-22T09:13:50.650Z,23.53
2019-04-22T09:15:45.530Z,23.15
2019-04-22T09:16:48.256Z,23.37
2019-04-22T09:17:47.352Z,23.16
2019-04-22T09:18:48.303Z,23.34
2019-04-22T09:19:47.420Z,23.54
2019-04-22T09:20:52.726Z,23.54
2019-04-22T09:22:47.180Z,23.74
2019-04-22T09:23:54.011Z,24.04
2019-04-22T09:24:48.589Z,23.93
2019-04-22T09:25:48.864Z,23.71
2019-04-22T09:26:47.642Z,23.50
2019-04-22T09:27:51.149Z,23.14
2019-04-22T09:28:52.357Z,23.49
2019-04-22T09:31:56.955Z,23.62
2019-04-22T09:32:54.468Z,23.99
2019-04-22T09:33:50.398Z,23.72
2019-04-22T09:34:46.993Z,23.63
2019-04-22T09:35:52.383Z,23.32
2019-04-22T09:36:50.494Z,23.62
2019-04-22T09:38:01.683Z,23.82
2019-04-22T09:38:46.785Z,24.11
2019-04-22T09:40:13.980Z,23.79
2019-04-22T09:40:52.885Z,23.71
2019-04-22T09:41:51.058Z,23.89
2019-04-22T09:42:53.286Z,23.67
2019-04-22T09:43:53.455Z,23.97
2019-04-22T09:45:05.864Z,23.86
2019-04-22T09:45:52.879Z,24.15
2019-04-22T09:46:52.189Z,24.63
2019-04-22T09:48:04.841Z,25.01
2019-04-22T09:49:05.017Z,24.75
2019-04-22T09:49:55.450Z,24.33
2019-04-22T09:50:51.933Z,23.78
2019-04-22T09:51:54.087Z,23.72
2019-04-22T09:52:53.160Z,23.71
2019-04-22T09:54:02.586Z,23.81
2019-04-22T09:55:00.276Z,24.04
2019-04-22T09:55:56.774Z,24.29
2019-04-22T09:56:55.079Z,24.37
2019-04-22T09:57:52.988Z,24.55
2019-04-22T09:58:59.343Z,24.63
2019-04-22T10:00:00.595Z,24.37
2019-04-22T10:01:03.074Z,24.23
2019-04-22T10:02:08.050Z,24.42
2019-04-22T10:05:01.615Z,24.04
2019-04-22T10:05:58.213Z,23.79
2019-04-22T10:06:54.689Z,24.52
2019-04-22T10:07:59.403Z,25.02
2019-04-22T10:09:12.674Z,24.74
2019-04-22T10:11:04.715Z,24.21
2019-04-22T10:11:57.724Z,24.60
2019-04-22T10:12:57.507Z,24.75
2019-04-22T10:13:59.379Z,24.75
2019-04-22T10:14:54.229Z,25.01
2019-04-22T10:16:02.616Z,24.52
2019-04-22T10:16:57.446Z,24.02
2019-04-22T10:17:57.545Z,24.16
2019-04-22T10:19:00.852Z,24.42
2019-04-22T10:20:01.072Z,24.59
2019-04-22T10:21:02.097Z,24.82
2019-04-22T10:22:04.908Z,24.93
2019-04-22T10:22:59.221Z,24.90
2019-04-22T10:24:03.528Z,24.99
2019-04-22T10:24:57.084Z,24.92
2019-04-22T10:25:58.815Z,25.16
2019-04-22T10:26:57.125Z,25.12
2019-04-22T10:30:00.119Z,25.45
2019-04-22T10:30:59.983Z,25.22
2019-04-22T10:32:05.621Z,24.71
2019-04-22T10:33:02.783Z,24.44
2019-04-22T10:33:53.258Z,24.39
2019-04-22T10:34:44.042Z,24.00
2019-04-22T10:35:37.351Z,24.14
2019-04-22T10:36:35.522Z,24.09
2019-04-22T10:37:36.537Z,24.29
2019-04-22T10:38:35.045Z,24.68
2019-04-22T10:39:43.243Z,24.83
2019-04-22T10:40:38.724Z,25.22
2019-04-22T10:41:36.971Z,25.30
2019-04-22T10:42:35.856Z,25.35
2019-04-22T10:43:37.130Z,25.14
2019-04-22T10:44:37.368Z,24.64
2019-04-22T10:45:37.713Z,24.39
2019-04-22T10:46:37.873Z,24.37
2019-04-22T10:47:38.268Z,24.93
2019-04-22T10:48:36.757Z,25.35
2019-04-22T10:49:38.296Z,25.45
2019-04-22T10:50:39.413Z,25.26
2019-04-22T10:51:37.338Z,24.80
2019-04-22T10:52:39.272Z,24.63
2019-04-22T10:53:39.642Z,24.98
2019-04-22T10:54:38.472Z,25.14
2019-04-22T10:55:40.468Z,25.17
2019-04-22T10:56:41.083Z,25.29
2019-04-22T10:57:40.912Z,25.53
2019-04-22T10:58:38.643Z,25.36
2019-04-22T10:59:38.816Z,25.56
2019-04-22T11:00:39.971Z,25.48
2019-04-22T11:01:40.256Z,24.86
2019-04-22T11:02:39.543Z,24.37
2019-04-22T11:03:41.569Z,24.27
2019-04-22T11:04:40.727Z,24.12
2019-04-22T11:05:39.966Z,24.55
2019-04-22T11:06:50.675Z,24.68
2019-04-22T11:07:49.513Z,25.39
2019-04-22T11:08:50.434Z,25.48
2019-04-22T11:09:52.105Z,25.30
2019-04-22T11:11:00.675Z,25.93
2019-04-22T11:11:51.073Z,26.11
2019-04-22T11:12:43.354Z,26.36
2019-04-22T11:13:42.141Z,26.00
2019-04-22T11:14:43.354Z,25.67
2019-04-22T11:15:44.596Z,25.30
2019-04-22T11:16:43.501Z,24.84
2019-04-22T11:18:05.212Z,24.79
2019-04-22T11:18:43.439Z,25.11
2019-04-22T11:19:43.975Z,24.92
2019-04-22T11:20:43.890Z,24.93
2019-04-22T11:21:44.590Z,24.83
2019-04-22T11:22:46.723Z,25.12
2019-04-22T11:23:44.783Z,25.59
2019-04-22T11:24:44.342Z,25.42
2019-04-22T11:25:44.032Z,25.61
2019-04-22T11:26:45.207Z,26.00
2019-04-22T11:27:44.852Z,26.66
2019-04-22T11:28:45.429Z,26.86
2019-04-22T11:29:45.599Z,26.72
2019-04-22T11:30:44.984Z,25.96
2019-04-22T11:31:44.508Z,25.89
2019-04-22T11:32:46.620Z,26.31
2019-04-22T11:33:45.787Z,25.60
2019-04-22T11:34:44.985Z,25.64
2019-04-22T11:35:46.077Z,25.64
2019-04-22T11:36:47.141Z,25.67
2019-04-22T11:37:46.610Z,26.12
2019-04-22T11:38:52.411Z,26.29
2019-04-22T11:39:48.127Z,26.73
2019-04-22T11:40:51.748Z,27.40
2019-04-22T11:41:49.948Z,28.11
2019-04-22T11:42:46.197Z,28.14
2019-04-22T11:43:47.369Z,26.16
2019-04-22T11:44:47.580Z,25.69
2019-04-22T11:45:49.161Z,25.94
2019-04-22T11:46:47.610Z,25.96
2019-04-22T11:47:51.058Z,26.24
2019-04-22T11:48:47.772Z,26.04
2019-04-22T11:49:48.433Z,26.69
2019-04-22T11:50:48.496Z,26.29
2019-04-22T11:51:47.887Z,26.28
2019-04-22T11:52:48.984Z,26.24
2019-04-22T11:53:49.097Z,26.09
2019-04-22T11:54:48.994Z,26.00
2019-04-22T11:55:49.010Z,25.64
2019-04-22T11:56:49.736Z,24.79
2019-04-22T11:57:49.878Z,25.26
2019-04-22T11:58:50.846Z,25.96
2019-04-22T11:59:49.178Z,26.21
2019-04-22T12:00:50.103Z,25.67
2019-04-22T12:01:50.986Z,26.36
2019-04-22T12:02:51.175Z,27.16
2019-04-22T12:03:49.879Z,27.16
2019-04-22T12:04:50.088Z,26.59
2019-04-22T12:05:50.312Z,25.81
2019-04-22T12:06:51.743Z,26.31
2019-04-22T12:07:50.973Z,26.60
2019-04-22T12:08:54.014Z,26.34
2019-04-22T12:09:51.405Z,25.90
2019-04-22T12:10:56.908Z,25.60
2019-04-22T12:11:53.872Z,25.96
2019-04-22T12:12:53.173Z,26.23
2019-04-22T12:13:53.822Z,26.61
2019-04-22T12:14:52.297Z,27.09
2019-04-22T12:15:53.385Z,26.69
2019-04-22T12:16:53.283Z,26.46
2019-04-22T12:17:53.273Z,27.28
2019-04-22T12:18:53.491Z,27.25
2019-04-22T12:19:52.697Z,27.03
2019-04-22T12:20:55.257Z,25.81
2019-04-22T12:21:53.265Z,26.00
2019-04-22T12:22:54.993Z,26.16
2019-04-22T12:23:54.816Z,26.54
2019-04-22T12:24:54.438Z,26.64
2019-04-22T12:26:02.103Z,26.54
2019-04-22T12:26:56.024Z,26.98
2019-04-22T12:27:55.272Z,26.68
2019-04-22T12:28:55.080Z,26.41
2019-04-22T12:29:56.607Z,26.60
2019-04-22T12:30:55.331Z,26.21
2019-04-22T12:31:55.611Z,26.57
2019-04-22T12:32:55.083Z,26.44
2019-04-22T12:33:57.149Z,26.56
2019-04-22T12:34:57.493Z,27.24
2019-04-22T12:35:56.783Z,27.24
2019-04-22T12:36:56.337Z,26.09
2019-04-22T12:38:01.506Z,26.31
2019-04-22T12:38:58.016Z,26.27
2019-04-22T12:39:56.598Z,26.46
2019-04-22T12:41:02.784Z,25.98
2019-04-22T12:41:58.761Z,26.11
2019-04-22T12:42:57.691Z,25.90
2019-04-22T12:43:58.994Z,25.97
2019-04-22T12:44:58.344Z,26.72
2019-04-22T12:45:58.286Z,27.21
2019-04-22T12:47:00.224Z,27.05
2019-04-22T12:48:19.156Z,25.76
2019-04-22T12:49:00.279Z,26.23
2019-04-22T12:50:08.891Z,26.01
2019-04-22T12:51:01.022Z,26.64
2019-04-22T12:51:58.950Z,26.73
2019-04-22T12:53:03.652Z,25.85
2019-04-22T12:54:01.370Z,26.12
2019-04-22T12:54:59.031Z,26.21
2019-04-22T12:56:01.148Z,26.61
2019-04-22T12:56:59.793Z,26.68
2019-04-22T12:58:02.727Z,27.01
2019-04-22T12:59:01.376Z,26.86
2019-04-22T13:00:01.741Z,26.60
2019-04-22T13:01:01.227Z,26.57
2019-04-22T13:02:00.693Z,25.82
2019-04-22T13:03:01.506Z,25.63
2019-04-22T13:04:05.706Z,25.76
2019-04-22T13:05:03.896Z,26.19
2019-04-22T13:06:01.564Z,26.24
2019-04-22T13:07:01.833Z,26.73
2019-04-22T13:08:01.990Z,26.65
2019-04-22T13:09:02.183Z,27.11
2019-04-22T13:10:04.066Z,26.39
2019-04-22T13:11:10.400Z,26.38
2019-04-22T13:12:04.533Z,26.36
2019-04-22T13:13:02.825Z,26.79
2019-04-22T13:14:04.966Z,27.06
2019-04-22T13:15:04.827Z,26.50
2019-04-22T13:16:04.692Z,26.27
2019-04-22T13:17:04.092Z,26.31
2019-04-22T13:18:14.909Z,25.83
2019-04-22T13:19:10.941Z,26.19
2019-04-22T13:20:05.884Z,26.27
2019-04-22T13:21:04.655Z,26.36
2019-04-22T13:22:05.078Z,26.21
2019-04-22T13:23:04.247Z,26.19
2019-04-22T13:24:04.696Z,26.20
2019-04-22T13:25:06.129Z,25.86
2019-04-22T13:26:07.221Z,26.29
2019-04-22T13:27:04.927Z,26.39
2019-04-22T13:28:05.106Z,26.84
2019-04-22T13:29:05.319Z,26.42
2019-04-22T13:30:08.153Z,26.32
2019-04-22T13:31:05.843Z,26.32
2019-04-22T13:32:06.968Z,26.66
2019-04-22T13:33:07.155Z,26.24
2019-04-22T13:34:10.532Z,26.16
2019-04-22T13:35:08.922Z,26.23
2019-04-22T13:36:08.000Z,26.08
2019-04-22T13:37:07.385Z,26.28
2019-04-22T13:38:09.064Z,26.59
2019-04-22T13:39:09.057Z,27.21
2019-04-22T13:40:07.501Z,26.75
2019-04-22T13:41:21.250Z,26.73
2019-04-22T13:42:14.158Z,26.65
2019-04-22T13:43:11.112Z,25.91
2019-04-22T13:44:09.105Z,26.46
2019-04-22T13:45:09.670Z,25.98
2019-04-22T13:46:10.017Z,26.13
2019-04-22T13:47:28.417Z,26.46
2019-04-22T13:48:29.116Z,25.93
2019-04-22T13:49:40.710Z,26.32
2019-04-22T13:50:50.210Z,26.39
2019-04-22T13:53:48.013Z,25.16
2019-04-22T13:54:48.193Z,25.75
2019-04-22T13:55:54.735Z,26.28
2019-04-22T13:56:30.348Z,26.06
2019-04-22T13:57:32.577Z,26.61
2019-04-22T13:58:30.209Z,26.76
2019-04-22T13:59:24.661Z,26.66
2019-04-22T14:00:13.704Z,26.87
2019-04-22T14:01:12.665Z,27.01
2019-04-22T14:02:12.751Z,26.79
2019-04-22T14:03:12.849Z,26.73
2019-04-22T14:04:12.457Z,26.36
2019-04-22T14:05:12.856Z,26.28
2019-04-22T14:06:13.179Z,25.64
2019-04-22T14:07:12.695Z,25.79
2019-04-22T14:08:14.559Z,26.29
2019-04-22T14:09:15.493Z,26.53
2019-04-22T14:10:14.253Z,26.61
2019-04-22T14:11:23.843Z,26.91
2019-04-22T14:12:16.304Z,26.94
2019-04-22T14:13:14.125Z,26.47
2019-04-22T14:14:15.617Z,25.90
2019-04-22T14:15:13.944Z,26.28
2019-04-22T14:16:15.390Z,25.94
2019-04-22T14:17:16.678Z,26.20
2019-04-22T14:18:14.957Z,26.34
2019-04-22T14:19:16.017Z,26.71
2019-04-22T14:20:16.056Z,26.23
2019-04-22T14:21:15.051Z,26.00
2019-04-22T14:22:16.110Z,25.49
2019-04-22T14:23:15.975Z,25.48
2019-04-22T14:24:17.840Z,25.69
2019-04-22T14:25:16.688Z,25.54
2019-04-22T14:26:17.481Z,26.09
2019-04-22T14:27:27.953Z,26.60
2019-04-22T14:28:19.357Z,26.46
2019-04-22T14:29:17.691Z,26.66